Time;durP1;ratioP1;P1;durP2;ratioP2;P2;SDS_P1;SDS_P2;PMS_P1;PMS_P2;Temp;Humidity;BMP_temperature;BMP_pressure;BME280_temperature;BME280_humidity;BME280_pressure;Samples;Min_cycle;Max_cycle;Signal;HPM_P1;HPM_P2
2023/03/25 00:13:39;;;;;;;4.27;2.07;;;;;;;9.45;64.06;99149.72;30621518;28;97288;-69
2023/03/25 00:28:39;;;;;;;4.00;2.03;;;;;;;9.16;64.17;99122.22;30630596;28;97538;-63
2023/03/25 00:43:40;;;;;;;4.10;1.95;;;;;;;9.00;64.49;99117.94;30629563;28;96831;-68
2023/03/25 00:58:40;;;;;;;8.02;2.03;;;;;;;8.84;65.14;99126.13;30628419;28;97360;-63
2023/03/25 01:13:40;;;;;;;4.40;2.17;;;;;;;8.68;65.01;99120.00;30626817;28;101851;-70
2023/03/25 01:28:42;;;;;;;4.68;2.92;;;;;;;8.51;65.10;99118.56;30624643;28;98218;-63
2023/03/25 01:44:00;;;;;;;3.90;2.37;;;;;;;8.41;65.46;99090.41;30623791;28;98542;-63
2023/03/25 01:59:03;;;;;;;10.60;4.37;;;;;;;8.35;66.11;99080.53;30622988;28;96774;-63
2023/03/25 02:14:10;;;;;;;5.37;2.57;;;;;;;8.21;66.25;99066.25;30620784;28;97474;-63
2023/03/25 02:29:23;;;;;;;5.43;3.27;;;;;;;7.96;66.27;99074.47;30618325;28;96739;-63
2023/03/25 02:44:34;;;;;;;7.97;3.57;;;;;;;7.78;66.96;99071.34;30618537;28;97082;-63
2023/03/25 02:59:37;;;;;;;8.73;3.77;;;;;;;7.76;67.52;99073.31;30617174;28;96702;-64
2023/03/25 03:14:43;;;;;;;7.23;3.73;;;;;;;7.72;67.58;99078.19;30615627;28;97345;-63
2023/03/25 03:29:52;;;;;;;6.93;3.33;;;;;;;7.73;68.01;99074.50;30614484;28;97495;-63
2023/03/25 03:44:58;;;;;;;7.83;4.50;;;;;;;7.56;68.03;99080.94;30613369;28;96848;-69
2023/03/25 04:00:24;;;;;;;7.57;3.97;;;;;;;7.37;68.45;99091.03;30612009;28;97065;-69
2023/03/25 04:15:25;;;;;;;6.20;3.53;;;;;;;7.29;69.13;99088.44;30609193;28;96687;-65
2023/03/25 04:30:27;;;;;;;10.98;5.32;;;;;;;7.14;69.51;99091.00;30608897;28;97536;-67
2023/03/25 04:45:29;;;;;;;9.47;4.80;;;;;;;6.97;69.93;99095.59;30606043;28;96677;-69
2023/03/25 05:00:29;;;;;;;6.00;3.43;;;;;;;6.90;70.50;99113.16;30617354;28;96499;-67
2023/03/25 05:15:34;;;;;;;6.85;3.95;;;;;;;6.99;69.46;99109.47;30625634;28;96739;-63
2023/03/25 05:30:40;;;;;;;6.97;4.23;;;;;;;7.14;70.00;99090.19;30624287;28;97478;-67
2023/03/25 05:45:41;;;;;;;6.07;3.10;;;;;;;7.35;70.72;99100.97;30622059;28;96819;-66
2023/03/25 06:00:42;;;;;;;6.10;3.57;;;;;;;8.23;69.82;99119.13;30621945;28;96645;-64
2023/03/25 06:15:43;;;;;;;7.65;3.88;;;;;;;9.34;69.33;99124.47;30619235;28;96892;-69
2023/03/25 06:30:45;;;;;;;6.23;3.20;;;;;;;10.96;67.14;99113.97;30619418;28;96784;-67
2023/03/25 06:45:50;;;;;;;6.87;3.50;;;;;;;11.90;63.39;99106.16;30616612;28;96596;-63
2023/03/25 07:00:53;;;;;;;6.63;3.33;;;;;;;11.51;62.61;99114.75;30615974;28;96683;-70
2023/03/25 07:15:55;;;;;;;6.93;3.93;;;;;;;11.05;63.55;99103.97;30613374;28;96605;-66
2023/03/25 07:30:55;;;;;;;6.17;3.30;;;;;;;11.06;63.85;99106.44;30611481;28;96723;-65
2023/03/25 07:45:55;;;;;;;7.03;3.33;;;;;;;10.88;64.17;99119.47;30609946;28;110926;-67
2023/03/25 08:00:56;;;;;;;4.55;3.08;;;;;;;11.15;64.06;99105.25;30610172;28;96685;-66
2023/03/25 08:15:57;;;;;;;3.58;2.13;;;;;;;11.88;62.06;99114.38;30609506;28;96647;-69
2023/03/25 08:30:57;;;;;;;3.05;1.50;;;;;;;13.39;59.30;99106.38;30613171;28;98116;-66
2023/03/25 08:45:58;;;;;;;3.97;1.48;;;;;;;13.24;56.47;99121.88;30625730;28;97035;-67
2023/03/25 09:00:58;;;;;;;4.75;1.17;;;;;;;12.77;55.97;99096.16;30626689;28;96723;-66
2023/03/25 09:15:58;;;;;;;1.10;0.93;;;;;;;13.08;55.74;99091.94;30624711;28;100979;-67
2023/03/25 09:30:59;;;;;;;3.13;1.15;;;;;;;14.35;53.46;99090.16;30623619;28;112274;-64
2023/03/25 09:46:00;;;;;;;2.63;1.10;;;;;;;14.56;49.67;99087.03;30621023;28;96708;-62
2023/03/25 10:01:21;;;;;;;1.87;0.70;;;;;;;13.86;49.99;99098.84;30619955;28;116840;-62
2023/03/25 10:16:48;;;;;;;1.67;0.50;;;;;;;13.67;47.91;99073.06;30618363;28;96550;-67
2023/03/25 10:31:51;;;;;;;2.50;0.90;;;;;;;14.64;46.70;99063.69;30617152;28;97341;-64
2023/03/25 10:46:54;;;;;;;2.57;0.87;;;;;;;20.90;37.51;99059.72;30616005;28;97684;-65
2023/03/25 11:01:57;;;;;;;1.20;0.50;;;;;;;22.92;30.24;99053.06;30613053;28;96802;-63
2023/03/25 11:17:04;;;;;;;1.07;0.60;;;;;;;24.64;30.69;99032.28;30612733;28;96814;-65
2023/03/25 11:32:13;;;;;;;1.07;0.50;;;;;;;25.78;23.38;99015.03;30613318;28;96640;-65
2023/03/25 11:47:23;;;;;;;3.70;1.00;;;;;;;24.49;25.48;99019.63;30610627;28;96659;-69
2023/03/25 12:02:35;;;;;;;3.50;0.80;;;;;;;20.45;28.49;99015.16;30611146;28;96665;-69
2023/03/25 12:18:09;;;;;;;5.17;0.87;;;;;;;15.43;37.29;99028.78;30630434;28;96799;-68
2023/03/25 12:33:29;;;;;;;2.10;0.93;;;;;;;12.21;45.46;99096.75;30628325;28;96831;-67
2023/03/25 12:48:41;;;;;;;2.03;0.47;;;;;;;11.49;51.58;99114.13;30626553;28;96736;-65
2023/03/25 13:03:59;;;;;;;2.30;0.90;;;;;;;12.76;52.57;99110.56;30627051;28;96990;-69
2023/03/25 13:19:09;;;;;;;0.93;0.60;;;;;;;19.70;43.24;99083.59;30623057;28;96741;-67
2023/03/25 13:34:22;;;;;;;1.47;0.40;;;;;;;22.40;35.54;99070.63;30622858;28;96845;-66
2023/03/25 13:49:31;;;;;;;2.17;1.20;;;;;;;18.46;36.86;99081.41;30621239;28;96816;-67
2023/03/25 14:05:10;;;;;;;2.47;1.10;;;;;;;13.91;44.45;99074.09;30620892;28;96753;-68
2023/03/25 14:20:16;;;;;;;4.03;2.00;;;;;;;14.22;46.52;99051.75;30617944;28;97566;-63
2023/03/25 14:35:39;;;;;;;5.10;2.10;;;;;;;14.14;44.96;99057.41;30617180;28;97106;-64
2023/03/25 14:50:40;;;;;;;2.23;0.83;;;;;;;13.43;45.16;99067.47;30617007;28;96823;-66
2023/03/25 15:05:41;;;;;;;1.10;0.68;;;;;;;12.39;46.59;99070.19;30613970;28;96802;-63
2023/03/25 15:20:41;;;;;;;1.23;0.70;;;;;;;11.48;49.80;99125.84;30612875;28;97526;-64
2023/03/25 15:36:16;;;;;;;7.72;3.80;;;;;;;9.36;54.68;99103.81;30611967;28;97073;-62
2023/03/25 15:51:51;;;;;;;4.60;2.93;;;;;;;9.33;58.93;99072.31;30601513;28;96831;-62
2023/03/25 16:06:55;;;;;;;0.60;0.60;;;;;;;9.44;60.08;99044.41;30609491;28;98057;-64
2023/03/25 16:22:00;;;;;;;;;;;;;;;9.01;61.24;99044.38;30608643;28;97002;-62
2023/03/25 16:37:01;;;;;;;6.97;2.70;;;;;;;8.43;63.35;99047.75;30608740;28;97227;-62
2023/03/25 16:52:08;;;;;;;6.30;1.80;;;;;;;8.00;64.07;99055.56;30611101;28;96744;-63
2023/03/25 17:07:19;;;;;;;6.27;2.77;;;;;;;7.75;65.38;99053.97;30625900;28;97287;-66
2023/03/25 17:22:27;;;;;;;2.47;1.23;;;;;;;7.52;65.42;99053.16;30623804;28;96795;-67
2023/03/25 17:37:29;;;;;;;13.27;6.50;;;;;;;7.21;65.86;99065.47;30622500;28;96774;-62
2023/03/25 17:52:30;;;;;;;5.00;2.33;;;;;;;7.00;66.73;99062.63;30621647;28;96615;-63
2023/03/25 18:07:31;;;;;;;15.80;4.95;;;;;;;6.73;66.57;99060.28;30620119;28;101605;-62
2023/03/25 18:22:31;;;;;;;13.15;5.80;;;;;;;6.47;67.77;99057.13;30617332;28;98560;-64
2023/03/25 18:37:31;;;;;;;15.95;8.23;;;;;;;6.30;68.77;99080.13;30617684;28;96864;-62
2023/03/25 18:52:32;;;;;;;6.72;3.53;;;;;;;7.06;70.20;99105.13;30615275;28;113971;-64
2023/03/25 19:07:32;;;;;;;4.18;2.13;;;;;;;7.70;67.89;99111.97;30614254;28;107376;-63
2023/03/25 19:22:32;;;;;;;5.97;1.95;;;;;;;7.76;67.54;99116.59;30611592;28;97238;-68
2023/03/25 19:37:34;;;;;;;2.05;1.33;;;;;;;7.77;66.92;99128.00;30612394;28;105041;-63
2023/03/25 19:52:34;;;;;;;2.57;1.20;;;;;;;7.65;66.79;99124.13;30610282;28;96756;-62
2023/03/25 20:07:37;;;;;;;4.43;1.57;;;;;;;7.34;66.52;99115.22;30608668;28;97182;-66
2023/03/25 20:22:38;;;;;;;3.97;1.90;;;;;;;7.14;67.15;99117.50;30609783;28;96660;-63
2023/03/25 20:37:39;;;;;;;5.37;1.83;;;;;;;7.11;66.42;99125.81;30628770;28;96577;-62
2023/03/25 20:52:40;;;;;;;4.28;2.03;;;;;;;7.15;66.43;99103.25;30627934;28;96759;-64
2023/03/25 21:07:41;;;;;;;5.15;1.83;;;;;;;7.15;66.63;99108.56;30627240;28;97216;-63
2023/03/25 21:22:42;;;;;;;6.07;2.80;;;;;;;7.33;65.67;99115.41;30623839;28;96918;-63
2023/03/25 21:37:43;;;;;;;6.87;3.40;;;;;;;7.37;65.48;99114.88;30621914;28;96759;-62
2023/03/25 21:52:45;;;;;;;7.50;3.60;;;;;;;7.39;65.82;99115.50;30620320;28;97350;-69
2023/03/25 22:07:45;;;;;;;6.13;2.77;;;;;;;7.49;65.08;99106.50;30621141;28;97282;-67
2023/03/25 22:22:46;;;;;;;8.23;3.80;;;;;;;7.60;64.73;99100.81;30620101;28;96706;-66
2023/03/25 22:37:51;;;;;;;7.68;3.10;;;;;;;7.59;64.58;99088.56;30619118;28;96724;-65
2023/03/25 22:52:51;;;;;;;5.00;2.33;;;;;;;7.57;64.08;99085.25;30616676;28;97444;-62
2023/03/25 23:07:52;;;;;;;5.80;2.45;;;;;;;7.22;63.77;99076.91;30617116;28;96737;-66
2023/03/25 23:22:52;;;;;;;2.58;1.70;;;;;;;6.98;64.95;99076.03;30615373;28;110970;-68
2023/03/25 23:37:53;;;;;;;2.55;1.70;;;;;;;6.82;65.01;99066.38;30613805;28;108252;-66
2023/03/25 23:52:54;;;;;;;4.40;2.17;;;;;;;7.01;65.54;99048.38;30613240;28;96654;-69
